createdAt,value
2018-03-17T00:00:39.647Z,0
2018-03-17T00:01:39.608Z,0
2018-03-17T00:02:39.325Z,0
2018-03-17T00:03:39.543Z,0
2018-03-17T00:04:39.515Z,0
2018-03-17T00:05:39.226Z,0
2018-03-17T00:06:39.441Z,0
2018-03-17T00:07:39.409Z,0
2018-03-17T00:08:39.380Z,0
2018-03-17T00:09:39.344Z,0
2018-03-17T00:10:39.295Z,0
2018-03-17T00:11:39.282Z,0
2018-03-17T00:12:38.996Z,0
2018-03-17T00:13:38.971Z,0
2018-03-17T00:14:39.180Z,0
2018-03-17T00:15:39.395Z,0
2018-03-17T00:16:39.117Z,0
2018-03-17T00:17:39.086Z,0
2018-03-17T00:18:39.052Z,0
2018-03-17T00:19:38.772Z,0
2018-03-17T00:20:38.736Z,0
2018-03-17T00:21:38.955Z,0
2018-03-17T00:22:38.920Z,0
2018-03-17T00:23:38.884Z,0
2018-03-17T00:24:38.852Z,0
2018-03-17T00:25:38.571Z,0
2018-03-17T00:26:38.791Z,0
2018-03-17T00:27:38.777Z,0
2018-03-17T00:28:38.729Z,0
2018-03-17T00:29:38.699Z,0
2018-03-17T00:30:38.701Z,0
2018-03-17T00:31:38.626Z,0
2018-03-17T00:32:38.595Z,0
2018-03-17T00:33:38.309Z,0
2018-03-17T00:34:38.531Z,0
2018-03-17T00:35:38.492Z,0
2018-03-17T00:36:38.211Z,0
2018-03-17T00:37:38.420Z,0
2018-03-17T00:38:38.407Z,0
2018-03-17T00:39:38.357Z,0
2018-03-17T00:40:38.331Z,0
2018-03-17T00:41:38.047Z,0
2018-03-17T00:42:38.279Z,0
2018-03-17T00:43:38.231Z,0
2018-03-17T00:44:38.198Z,0
2018-03-17T00:45:38.177Z,0
2018-03-17T00:46:37.891Z,0
2018-03-17T00:47:38.207Z,0
2018-03-17T00:48:37.818Z,0
2018-03-17T00:49:38.042Z,0
2018-03-17T00:50:38.004Z,0
2018-03-17T00:51:37.977Z,0
2018-03-17T00:52:37.939Z,0
2018-03-17T00:53:37.904Z,0
2018-03-17T00:54:37.861Z,0
2018-03-17T00:55:37.841Z,0
2018-03-17T00:56:37.809Z,0
2018-03-17T00:57:37.869Z,0
2018-03-17T00:58:37.734Z,0
2018-03-17T00:59:37.703Z,0
2018-03-17T01:00:37.669Z,0
2018-03-17T01:01:37.647Z,0
2018-03-17T01:02:37.613Z,0
2018-03-17T01:03:37.578Z,0
2018-03-17T01:04:37.544Z,0
2018-03-17T01:05:37.509Z,0
2018-03-17T01:06:37.476Z,0
2018-03-17T01:07:37.186Z,0
2018-03-17T01:08:37.161Z,0
2018-03-17T01:09:37.381Z,0
2018-03-17T01:10:37.342Z,0
2018-03-17T01:11:37.307Z,0
2018-03-17T01:12:37.275Z,0
2018-03-17T01:13:37.245Z,0
2018-03-17T01:14:37.287Z,0
2018-03-17T01:15:37.176Z,0
2018-03-17T01:16:37.142Z,0
2018-03-17T01:17:37.101Z,0
2018-03-17T01:18:37.072Z,0
2018-03-17T01:19:37.041Z,0
2018-03-17T01:20:37.007Z,0
2018-03-17T01:21:36.983Z,0
2018-03-17T01:22:36.947Z,0
2018-03-17T01:23:36.932Z,0
2018-03-17T01:24:36.883Z,0
2018-03-17T01:25:36.852Z,0
2018-03-17T01:26:36.813Z,0
2018-03-17T01:27:36.780Z,0
2018-03-17T01:28:36.742Z,0
2018-03-17T01:29:36.770Z,0
2018-03-17T01:30:36.693Z,0
2018-03-17T01:31:36.647Z,0
2018-03-17T01:32:36.369Z,0
2018-03-17T01:33:36.578Z,0
2018-03-17T01:34:36.298Z,0
2018-03-17T01:35:36.510Z,0
2018-03-17T01:36:36.536Z,0
2018-03-17T01:37:36.442Z,0
2018-03-17T01:38:36.411Z,0
2018-03-17T01:39:36.387Z,0
2018-03-17T01:40:36.343Z,0
2018-03-17T01:41:36.326Z,0
2018-03-17T01:42:36.305Z,0
2018-03-17T01:43:36.245Z,0
2018-03-17T01:44:35.967Z,0
2018-03-17T01:45:36.184Z,0
2018-03-17T01:46:36.173Z,0
2018-03-17T01:47:36.118Z,0
2018-03-17T01:48:36.083Z,0
2018-03-17T01:49:35.800Z,0
2018-03-17T01:50:36.034Z,0
2018-03-17T01:51:35.989Z,0
2018-03-17T01:52:35.953Z,0
2018-03-17T01:53:35.668Z,0
2018-03-17T01:54:35.889Z,0
2018-03-17T01:55:35.849Z,0
2018-03-17T01:56:35.821Z,0
2018-03-17T01:57:35.783Z,0
2018-03-17T01:58:35.752Z,0
2018-03-17T01:59:35.727Z,0
2018-03-17T02:00:35.698Z,0
2018-03-17T02:01:35.652Z,0
2018-03-17T02:02:35.614Z,0
2018-03-17T02:03:35.085Z,0
2018-03-17T02:04:35.551Z,0
2018-03-17T02:05:35.515Z,0
2018-03-17T02:06:35.245Z,0
2018-03-17T02:07:35.456Z,0
2018-03-17T02:08:35.173Z,0
2018-03-17T02:09:35.385Z,0
2018-03-17T02:10:35.360Z,0
2018-03-17T02:11:35.320Z,0
2018-03-17T02:12:35.280Z,0
2018-03-17T02:13:35.255Z,0
2018-03-17T02:14:34.969Z,0
2018-03-17T02:15:35.188Z,0
2018-03-17T02:16:35.158Z,0
2018-03-17T02:17:35.120Z,0
2018-03-17T02:18:35.088Z,0
2018-03-17T02:19:35.059Z,0
2018-03-17T02:20:35.034Z,0
2018-03-17T02:21:34.993Z,0
2018-03-17T02:22:34.960Z,0
2018-03-17T02:23:34.922Z,0
2018-03-17T02:24:34.893Z,0
2018-03-17T02:25:34.864Z,0
2018-03-17T02:26:34.570Z,0
2018-03-17T02:27:34.803Z,0
2018-03-17T02:28:34.759Z,0
2018-03-17T02:29:34.725Z,0
2018-03-17T02:30:34.707Z,0
2018-03-17T02:31:34.675Z,0
2018-03-17T02:32:34.636Z,0
2018-03-17T02:33:34.598Z,0
2018-03-17T02:34:34.312Z,0
2018-03-17T02:35:34.535Z,0
2018-03-17T02:36:34.499Z,0
2018-03-17T02:37:34.465Z,0
2018-03-17T02:38:34.432Z,0
2018-03-17T02:39:34.393Z,0
2018-03-17T02:40:34.366Z,0
2018-03-17T02:41:34.329Z,0
2018-03-17T02:42:34.299Z,0
2018-03-17T02:43:34.265Z,0
2018-03-17T02:44:34.242Z,0
2018-03-17T02:45:34.193Z,0
2018-03-17T02:46:34.160Z,0
2018-03-17T02:47:33.877Z,0
2018-03-17T02:48:33.899Z,0
2018-03-17T02:49:33.818Z,0
2018-03-17T02:50:34.034Z,0
2018-03-17T02:51:34.003Z,0
2018-03-17T02:52:34.080Z,0
2018-03-17T02:53:33.940Z,0
2018-03-17T02:54:33.904Z,0
2018-03-17T02:55:33.614Z,0
2018-03-17T02:56:33.831Z,0
2018-03-17T02:57:33.797Z,0
2018-03-17T02:58:33.764Z,0
2018-03-17T02:59:33.486Z,0
2018-03-17T03:00:33.691Z,0
2018-03-17T03:01:33.658Z,0
2018-03-17T03:02:33.624Z,0
2018-03-17T03:03:33.596Z,0
2018-03-17T03:04:33.310Z,0
2018-03-17T03:05:33.528Z,0
2018-03-17T03:06:33.499Z,0
2018-03-17T03:07:33.483Z,0
2018-03-17T03:08:33.432Z,0
2018-03-17T03:09:33.392Z,0
2018-03-17T03:10:33.351Z,0
2018-03-17T03:11:33.323Z,0
2018-03-17T03:12:33.294Z,0
2018-03-17T03:13:33.254Z,0
2018-03-17T03:14:32.977Z,0
2018-03-17T03:15:33.188Z,0
2018-03-17T03:16:32.910Z,0
2018-03-17T03:17:33.123Z,0
2018-03-17T03:18:33.083Z,0
2018-03-17T03:19:33.071Z,0
2018-03-17T03:20:33.018Z,0
2018-03-17T03:21:32.986Z,0
2018-03-17T03:22:32.959Z,0
2018-03-17T03:23:32.671Z,0
2018-03-17T03:24:32.639Z,0
2018-03-17T03:25:32.857Z,0
2018-03-17T03:26:32.818Z,0
2018-03-17T03:27:32.785Z,0
2018-03-17T03:28:32.757Z,0
2018-03-17T03:29:32.532Z,0
2018-03-17T03:30:32.699Z,0
2018-03-17T03:31:32.655Z,0
2018-03-17T03:32:32.616Z,0
2018-03-17T03:33:32.597Z,0
2018-03-17T03:34:32.558Z,0
2018-03-17T03:35:32.521Z,0
2018-03-17T03:36:32.233Z,0
2018-03-17T03:37:32.452Z,0
2018-03-17T03:38:32.423Z,0
2018-03-17T03:39:32.392Z,0
2018-03-17T03:40:32.353Z,0
2018-03-17T03:41:32.318Z,0
2018-03-17T03:42:32.286Z,0
2018-03-17T03:43:32.269Z,0
2018-03-17T03:44:31.970Z,0
2018-03-17T03:45:31.932Z,0
2018-03-17T03:46:32.152Z,0
2018-03-17T03:47:32.117Z,0
2018-03-17T03:48:32.090Z,0
2018-03-17T03:49:32.054Z,0
2018-03-17T03:50:31.774Z,0
2018-03-17T03:51:31.735Z,0
2018-03-17T03:52:31.947Z,0
2018-03-17T03:53:31.915Z,0
2018-03-17T03:54:31.881Z,0
2018-03-17T03:55:31.861Z,0
2018-03-17T03:56:31.815Z,0
2018-03-17T03:57:31.782Z,0
2018-03-17T03:58:31.501Z,0
2018-03-17T03:59:31.461Z,0
2018-03-17T04:00:31.687Z,0
2018-03-17T04:01:31.646Z,0
2018-03-17T04:02:31.614Z,0
2018-03-17T04:03:31.575Z,0
2018-03-17T04:04:31.545Z,0
2018-03-17T04:05:31.523Z,0
2018-03-17T04:06:31.481Z,0
2018-03-17T04:07:31.442Z,0
2018-03-17T04:08:31.409Z,0
2018-03-17T04:09:30.887Z,0
2018-03-17T04:10:31.101Z,0
2018-03-17T04:11:31.364Z,0
2018-03-17T04:12:31.282Z,0
2018-03-17T04:13:31.430Z,0
2018-03-17T04:14:31.210Z,0
2018-03-17T04:15:31.176Z,0
2018-03-17T04:16:31.143Z,0
2018-03-17T04:17:31.115Z,0
2018-03-17T04:18:31.080Z,0
2018-03-17T04:19:30.802Z,0
2018-03-17T04:20:30.767Z,0
2018-03-17T04:21:30.725Z,0
2018-03-17T04:22:30.946Z,0
2018-03-17T04:23:30.660Z,0
2018-03-17T04:24:30.624Z,0
2018-03-17T04:25:30.835Z,0
2018-03-17T04:26:30.806Z,0
2018-03-17T04:27:30.774Z,0
2018-03-17T04:28:30.735Z,0
2018-03-17T04:29:30.704Z,0
2018-03-17T04:30:30.670Z,0
2018-03-17T04:31:30.654Z,0
2018-03-17T04:32:30.611Z,0
2018-03-17T04:33:30.322Z,0
2018-03-17T04:34:30.536Z,0
2018-03-17T04:35:30.501Z,0
2018-03-17T04:36:30.467Z,0
2018-03-17T04:37:30.438Z,0
2018-03-17T04:38:30.402Z,0
2018-03-17T04:39:30.119Z,0
2018-03-17T04:40:30.333Z,0
2018-03-17T04:41:30.057Z,0
2018-03-17T04:42:30.266Z,0
2018-03-17T04:43:30.234Z,0
2018-03-17T04:44:29.954Z,0
2018-03-17T04:45:29.976Z,0
2018-03-17T04:46:30.131Z,0
2018-03-17T04:47:30.105Z,0
2018-03-17T04:48:30.123Z,0
2018-03-17T04:49:30.044Z,0
2018-03-17T04:50:29.997Z,0
2018-03-17T04:51:29.716Z,0
2018-03-17T04:52:29.934Z,0
2018-03-17T04:53:29.655Z,0
2018-03-17T04:54:29.621Z,0
2018-03-17T04:55:29.828Z,0
2018-03-17T04:56:29.547Z,0
2018-03-17T04:57:29.756Z,0
2018-03-17T04:58:29.729Z,0
2018-03-17T04:59:29.442Z,0
2018-03-17T05:00:29.657Z,0
2018-03-17T05:01:29.632Z,0
2018-03-17T05:02:29.589Z,0
2018-03-17T05:03:29.552Z,0
2018-03-17T05:04:29.024Z,0
2018-03-17T05:05:29.507Z,0
2018-03-17T05:06:29.515Z,0
2018-03-17T05:07:29.422Z,0
2018-03-17T05:08:29.391Z,0
2018-03-17T05:09:29.353Z,0
2018-03-17T05:10:29.329Z,0
2018-03-17T05:11:29.286Z,0
2018-03-17T05:12:29.255Z,0
2018-03-17T05:13:28.974Z,4
2018-03-17T05:14:29.182Z,4
2018-03-17T05:15:29.162Z,0
2018-03-17T05:16:29.116Z,0
2018-03-17T05:17:29.083Z,4
2018-03-17T05:18:28.804Z,4
2018-03-17T05:19:28.771Z,4
2018-03-17T05:20:28.979Z,8
2018-03-17T05:21:28.956Z,4
2018-03-17T05:22:28.919Z,8
2018-03-17T05:23:28.632Z,8
2018-03-17T05:24:28.599Z,8
2018-03-17T05:25:28.811Z,12
2018-03-17T05:26:28.779Z,12
2018-03-17T05:27:28.749Z,12
2018-03-17T05:28:28.709Z,16
2018-03-17T05:29:28.678Z,20
2018-03-17T05:30:28.639Z,24
2018-03-17T05:31:28.605Z,24
2018-03-17T05:32:28.570Z,32
2018-03-17T05:33:28.544Z,32
2018-03-17T05:34:28.508Z,36
2018-03-17T05:35:28.510Z,40
2018-03-17T05:36:28.182Z,44
2018-03-17T05:37:28.407Z,48
2018-03-17T05:38:28.363Z,48
2018-03-17T05:39:28.345Z,56
2018-03-17T05:40:28.296Z,60
2018-03-17T05:41:28.274Z,68
2018-03-17T05:42:28.236Z,72
2018-03-17T05:43:28.025Z,84
2018-03-17T05:44:28.158Z,96
2018-03-17T05:45:28.127Z,104
2018-03-17T05:46:27.844Z,120
2018-03-17T05:47:28.060Z,128
2018-03-17T05:48:27.529Z,132
2018-03-17T05:49:27.741Z,152
2018-03-17T05:50:27.965Z,172
2018-03-17T05:51:27.927Z,184
2018-03-17T05:52:27.888Z,188
2018-03-17T05:53:27.612Z,204
2018-03-17T05:54:27.869Z,220
2018-03-17T05:55:27.783Z,236
2018-03-17T05:56:27.762Z,248
2018-03-17T05:57:27.461Z,260
2018-03-17T05:58:27.715Z,240
2018-03-17T05:59:27.651Z,260
2018-03-17T06:00:27.611Z,264
2018-03-17T06:01:27.590Z,260
2018-03-17T06:02:27.555Z,276
2018-03-17T06:03:27.519Z,296
2018-03-17T06:04:27.620Z,348
2018-03-17T06:05:27.444Z,376
2018-03-17T06:06:27.407Z,396
2018-03-17T06:07:27.391Z,424
2018-03-17T06:08:27.345Z,436
2018-03-17T06:09:27.058Z,452
2018-03-17T06:10:27.024Z,456
2018-03-17T06:11:27.238Z,464
2018-03-17T06:12:27.195Z,476
2018-03-17T06:13:27.168Z,492
2018-03-17T06:14:26.885Z,512
2018-03-17T06:15:27.095Z,552
2018-03-17T06:16:26.818Z,536
2018-03-17T06:17:26.782Z,596
2018-03-17T06:18:26.998Z,604
2018-03-17T06:19:26.965Z,672
2018-03-17T06:20:26.930Z,688
2018-03-17T06:21:26.901Z,744
2018-03-17T06:22:26.859Z,780
2018-03-17T06:23:26.824Z,788
2018-03-17T06:24:26.542Z,796
2018-03-17T06:25:26.829Z,804
2018-03-17T06:26:26.719Z,820
2018-03-17T06:27:26.689Z,820
2018-03-17T06:28:26.414Z,896
2018-03-17T06:29:26.367Z,900
2018-03-17T06:30:26.588Z,944
2018-03-17T06:31:26.554Z,1024
2018-03-17T06:32:26.684Z,1056
2018-03-17T06:33:26.475Z,976
2018-03-17T06:34:26.191Z,908
2018-03-17T06:35:26.414Z,892
2018-03-17T06:36:26.467Z,928
2018-03-17T06:37:26.339Z,908
2018-03-17T06:38:26.312Z,940
2018-03-17T06:39:26.352Z,932
2018-03-17T06:40:25.995Z,924
2018-03-17T06:41:26.205Z,936
2018-03-17T06:42:26.170Z,944
2018-03-17T06:43:26.122Z,952
2018-03-17T06:44:25.641Z,1040
2018-03-17T06:45:25.593Z,1048
2018-03-17T06:46:25.791Z,1064
2018-03-17T06:47:25.514Z,1080
2018-03-17T06:48:25.474Z,1116
2018-03-17T06:49:25.946Z,1048
2018-03-17T06:50:26.828Z,1156
2018-03-17T06:51:26.400Z,1176
2018-03-17T06:52:26.126Z,1180
2018-03-17T06:53:26.176Z,1232
2018-03-17T06:54:27.088Z,1236
2018-03-17T06:55:26.394Z,1288
2018-03-17T06:56:26.253Z,1364
2018-03-17T06:57:26.437Z,1408
2018-03-17T06:58:26.424Z,1308
2018-03-17T06:59:26.613Z,1316
2018-03-17T07:00:27.467Z,1408
2018-03-17T07:01:27.250Z,1432
2018-03-17T07:02:26.623Z,1424
2018-03-17T07:03:26.129Z,1396
2018-03-17T07:04:26.398Z,1464
2018-03-17T07:05:27.243Z,1684
2018-03-17T07:06:28.329Z,1696
2018-03-17T07:07:28.855Z,1892
2018-03-17T07:08:27.206Z,1748
2018-03-17T07:09:27.875Z,1820
2018-03-17T07:10:26.787Z,1852
2018-03-17T07:11:27.843Z,2088
2018-03-17T07:12:27.051Z,2240
2018-03-17T07:13:25.726Z,2244
2018-03-17T07:14:27.136Z,2508
2018-03-17T07:15:27.263Z,2356
2018-03-17T07:16:27.041Z,2772
2018-03-17T07:17:26.954Z,2864
2018-03-17T07:18:25.891Z,2652
2018-03-17T07:19:26.077Z,2732
2018-03-17T07:20:27.372Z,2836
2018-03-17T07:21:25.085Z,3052
2018-03-17T07:22:25.447Z,2984
2018-03-17T07:23:25.313Z,2748
2018-03-17T07:24:27.191Z,3152
2018-03-17T07:25:27.336Z,3084
2018-03-17T07:26:25.755Z,3224
2018-03-17T07:27:27.639Z,3220
2018-03-17T07:28:27.053Z,3364
2018-03-17T07:29:25.959Z,3756
2018-03-17T07:30:24.886Z,3688
2018-03-17T07:31:25.421Z,4012
2018-03-17T07:32:27.496Z,4056
2018-03-17T07:33:26.636Z,3800
2018-03-17T07:34:27.036Z,3488
2018-03-17T07:35:25.809Z,3564
2018-03-17T07:36:25.358Z,3556
2018-03-17T07:37:25.732Z,3444
2018-03-17T07:38:26.950Z,3344
2018-03-17T07:39:25.066Z,3232
2018-03-17T07:40:26.352Z,3316
2018-03-17T07:41:24.908Z,3472
2018-03-17T07:42:24.882Z,3372
2018-03-17T07:43:24.456Z,3208
2018-03-17T07:44:25.155Z,3100
2018-03-17T07:45:25.990Z,3072
2018-03-17T07:46:26.041Z,3172
2018-03-17T07:47:26.127Z,3588
2018-03-17T07:48:26.183Z,3800
2018-03-17T07:49:26.031Z,4044
2018-03-17T07:50:26.354Z,4384
2018-03-17T07:51:25.566Z,4000
2018-03-17T07:52:25.004Z,3948
2018-03-17T07:53:25.862Z,3460
2018-03-17T07:54:25.584Z,3288
2018-03-17T07:55:25.463Z,3276
2018-03-17T07:56:25.381Z,3288
2018-03-17T07:57:24.964Z,3352
2018-03-17T07:58:25.010Z,3188
2018-03-17T07:59:26.322Z,3632
2018-03-17T08:00:26.512Z,3756
2018-03-17T08:01:25.456Z,4464
2018-03-17T08:02:24.785Z,4404
2018-03-17T08:03:26.428Z,4512
2018-03-17T08:04:23.772Z,5560
2018-03-17T08:05:24.668Z,6056
2018-03-17T08:06:24.034Z,6556
2018-03-17T08:07:26.056Z,7112
2018-03-17T08:08:24.987Z,6768
2018-03-17T08:09:25.066Z,6644
2018-03-17T08:10:25.388Z,6856
2018-03-17T08:11:24.462Z,6224
2018-03-17T08:12:24.727Z,5636
2018-03-17T08:13:24.518Z,5608
2018-03-17T08:14:24.354Z,6140
2018-03-17T08:15:25.714Z,5328
2018-03-17T08:16:25.537Z,5140
2018-03-17T08:17:24.930Z,5828
2018-03-17T08:18:24.196Z,6204
2018-03-17T08:19:24.034Z,5900
2018-03-17T08:20:23.274Z,5944
2018-03-17T08:21:24.494Z,6360
2018-03-17T08:22:25.090Z,6368
2018-03-17T08:23:24.470Z,5844
2018-03-17T08:24:25.633Z,6368
2018-03-17T08:25:24.130Z,6644
2018-03-17T08:26:24.520Z,5828
2018-03-17T08:27:24.607Z,6132
2018-03-17T08:28:24.312Z,6800
2018-03-17T08:29:23.890Z,6952
2018-03-17T08:30:24.141Z,7540
2018-03-17T08:31:24.048Z,7984
2018-03-17T08:32:23.059Z,8728
2018-03-17T08:33:23.130Z,9136
2018-03-17T08:34:23.448Z,7556
2018-03-17T08:35:24.119Z,7728
2018-03-17T08:36:22.962Z,7076
2018-03-17T08:37:24.463Z,6272
2018-03-17T08:38:24.178Z,6020
2018-03-17T08:39:22.976Z,7128
2018-03-17T08:40:22.807Z,7256
2018-03-17T08:41:22.940Z,7508
2018-03-17T08:42:24.020Z,7568
2018-03-17T08:43:23.222Z,6892
2018-03-17T08:44:23.628Z,7496
2018-03-17T08:45:22.616Z,6956
2018-03-17T08:46:22.942Z,7736
2018-03-17T08:47:23.177Z,8336
2018-03-17T08:48:23.594Z,7392
2018-03-17T08:49:22.897Z,8212
2018-03-17T08:50:21.853Z,8108
2018-03-17T08:51:22.485Z,8336
2018-03-17T08:52:22.261Z,8840
2018-03-17T08:53:23.000Z,8392
2018-03-17T08:54:21.870Z,9904
2018-03-17T08:55:21.712Z,9604
2018-03-17T08:56:21.989Z,9936
2018-03-17T08:57:21.780Z,10268
2018-03-17T08:58:22.121Z,9288
2018-03-17T08:59:22.648Z,11012
2018-03-17T09:00:23.057Z,11372
2018-03-17T09:01:24.483Z,10276
2018-03-17T09:02:22.826Z,11828
2018-03-17T09:03:23.116Z,10844
2018-03-17T09:04:22.881Z,11140
2018-03-17T09:05:22.827Z,11124
2018-03-17T09:06:23.568Z,11164
2018-03-17T09:07:22.995Z,9620
2018-03-17T09:08:22.753Z,10052
2018-03-17T09:09:22.094Z,8740
2018-03-17T09:10:23.767Z,8524
2018-03-17T09:11:21.735Z,9712
2018-03-17T09:12:22.028Z,9704
2018-03-17T09:13:22.595Z,10688
2018-03-17T09:14:23.656Z,12460
2018-03-17T09:15:22.138Z,14388
2018-03-17T09:16:24.170Z,13900
2018-03-17T09:17:22.008Z,14164
2018-03-17T09:18:22.521Z,13204
2018-03-17T09:19:22.432Z,14048
2018-03-17T09:20:22.455Z,12964
2018-03-17T09:21:22.192Z,12372
2018-03-17T09:22:22.745Z,12360
2018-03-17T09:23:22.039Z,11252
2018-03-17T09:24:21.561Z,11800
2018-03-17T09:25:23.626Z,10524
2018-03-17T09:26:23.257Z,10564
2018-03-17T09:27:22.551Z,11116
2018-03-17T09:28:23.026Z,10400
2018-03-17T09:29:22.645Z,10968
2018-03-17T09:30:21.057Z,11152
2018-03-17T09:31:20.936Z,11692
2018-03-17T09:32:20.803Z,11484
2018-03-17T09:33:22.043Z,12292
2018-03-17T09:34:21.937Z,13320
2018-03-17T09:35:21.314Z,13228
2018-03-17T09:36:21.053Z,12900
2018-03-17T09:37:21.480Z,12628
2018-03-17T09:38:20.708Z,12020
2018-03-17T09:39:20.999Z,11960
2018-03-17T09:40:20.815Z,12408
2018-03-17T09:41:20.667Z,13556
2018-03-17T09:42:20.763Z,13632
2018-03-17T09:43:21.043Z,14644
2018-03-17T09:44:21.161Z,15320
2018-03-17T09:45:21.224Z,14864
2018-03-17T09:46:20.481Z,15472
2018-03-17T09:47:20.854Z,14984
2018-03-17T09:48:21.162Z,14604
2018-03-17T09:49:20.364Z,14940
2018-03-17T09:50:19.553Z,16412
2018-03-17T09:51:20.092Z,15044
2018-03-17T09:52:21.155Z,16116
2018-03-17T09:53:20.340Z,16392
2018-03-17T09:54:20.820Z,18560
2018-03-17T09:55:21.035Z,17920
2018-03-17T09:56:20.877Z,17856
2018-03-17T09:57:20.283Z,18688
2018-03-17T09:58:19.559Z,15864
2018-03-17T09:59:20.502Z,16408
2018-03-17T10:00:19.952Z,16092
2018-03-17T10:01:20.132Z,17076
2018-03-17T10:02:19.683Z,17416
2018-03-17T10:03:20.250Z,18464
2018-03-17T10:04:19.782Z,16528
2018-03-17T10:05:19.808Z,16712
2018-03-17T10:06:20.762Z,18144
2018-03-17T10:07:20.636Z,18944
2018-03-17T10:08:19.475Z,21024
2018-03-17T10:09:19.511Z,22368
2018-03-17T10:10:20.419Z,23264
2018-03-17T10:11:20.232Z,21472
2018-03-17T10:12:19.570Z,18816
2018-03-17T10:13:19.808Z,17984
2018-03-17T10:14:20.606Z,19680
2018-03-17T10:15:19.211Z,21088
2018-03-17T10:16:19.538Z,21216
2018-03-17T10:17:19.651Z,19968
2018-03-17T10:18:19.644Z,20800
2018-03-17T10:19:19.941Z,20160
2018-03-17T10:20:19.528Z,20512
2018-03-17T10:21:19.327Z,19744
2018-03-17T10:22:19.824Z,19872
2018-03-17T10:23:18.784Z,20256
2018-03-17T10:24:18.855Z,19040
2018-03-17T10:25:20.170Z,23168
2018-03-17T10:26:19.004Z,20000
2018-03-17T10:27:19.139Z,17308
2018-03-17T10:28:19.710Z,17132
2018-03-17T10:29:19.094Z,16892
2018-03-17T10:30:20.566Z,19552
2018-03-17T10:31:21.041Z,22112
2018-03-17T10:32:19.081Z,23840
2018-03-17T10:33:19.217Z,21088
2018-03-17T10:34:19.892Z,20032
2018-03-17T10:35:19.150Z,20928
2018-03-17T10:36:18.581Z,18368
2018-03-17T10:37:19.275Z,15824
2018-03-17T10:38:18.522Z,15520
2018-03-17T10:39:18.999Z,16248
2018-03-17T10:40:19.269Z,16872
2018-03-17T10:41:18.643Z,16920
2018-03-17T10:42:18.801Z,14616
2018-03-17T10:43:18.317Z,15956
2018-03-17T10:44:19.086Z,14696
2018-03-17T10:45:18.736Z,15780
2018-03-17T10:46:18.240Z,14320
2018-03-17T10:47:18.318Z,14100
2018-03-17T10:48:18.004Z,13792
2018-03-17T10:49:18.351Z,12096
2018-03-17T10:50:17.714Z,13576
2018-03-17T10:51:18.011Z,13556
2018-03-17T10:52:18.335Z,12576
2018-03-17T10:53:18.498Z,14864
2018-03-17T10:54:17.774Z,15808
2018-03-17T10:55:17.418Z,14236
2018-03-17T10:56:17.630Z,14452
2018-03-17T10:57:17.596Z,14416
2018-03-17T10:58:17.325Z,14576
2018-03-17T10:59:17.108Z,14640
2018-03-17T11:00:17.318Z,15176
2018-03-17T11:01:17.468Z,13636
2018-03-17T11:02:17.267Z,14964
2018-03-17T11:03:17.395Z,13416
2018-03-17T11:04:17.374Z,15600
2018-03-17T11:05:17.100Z,14392
2018-03-17T11:06:17.473Z,12652
2018-03-17T11:07:17.028Z,11744
2018-03-17T11:08:17.064Z,12856
2018-03-17T11:09:16.953Z,12604
2018-03-17T11:10:16.701Z,13808
2018-03-17T11:11:17.135Z,13872
2018-03-17T11:12:17.117Z,15104
2018-03-17T11:13:17.068Z,15608
2018-03-17T11:14:16.791Z,14912
2018-03-17T11:15:17.002Z,16956
2018-03-17T11:16:16.979Z,17292
2018-03-17T11:17:16.697Z,16956
2018-03-17T11:18:16.909Z,16648
2018-03-17T11:19:16.375Z,17124
2018-03-17T11:20:16.842Z,16432
2018-03-17T11:21:16.817Z,15668
2018-03-17T11:22:16.807Z,16044
2018-03-17T11:23:16.243Z,18336
2018-03-17T11:24:16.462Z,15828
2018-03-17T11:25:16.424Z,13740
2018-03-17T11:26:16.646Z,13612
2018-03-17T11:27:16.119Z,13952
2018-03-17T11:28:16.082Z,15116
2018-03-17T11:29:16.293Z,13324
2018-03-17T11:30:16.262Z,11420
2018-03-17T11:31:16.481Z,11944
2018-03-17T11:32:16.451Z,14588
2018-03-17T11:33:16.172Z,14460
2018-03-17T11:34:16.134Z,14508
2018-03-17T11:35:16.349Z,12876
2018-03-17T11:36:16.073Z,11904
2018-03-17T11:37:16.282Z,13592
2018-03-17T11:38:16.251Z,14436
2018-03-17T11:39:16.228Z,12348
2018-03-17T11:40:16.182Z,16936
2018-03-17T11:41:16.159Z,14728
2018-03-17T11:42:16.125Z,12764
2018-03-17T11:43:16.477Z,12844
2018-03-17T11:44:15.799Z,11860
2018-03-17T11:45:16.031Z,14056
2018-03-17T11:46:16.046Z,13000
2018-03-17T11:47:15.952Z,14156
2018-03-17T11:48:15.921Z,12576
2018-03-17T11:49:15.887Z,13880
2018-03-17T11:50:15.854Z,15480
2018-03-17T11:51:15.830Z,13192
2018-03-17T11:52:15.538Z,13236
2018-03-17T11:53:15.755Z,11864
2018-03-17T11:54:15.724Z,11716
2018-03-17T11:55:15.690Z,11920
2018-03-17T11:56:15.661Z,11932
2018-03-17T11:57:15.631Z,11584
2018-03-17T11:58:15.592Z,13504
2018-03-17T11:59:15.560Z,13680
2018-03-17T12:00:15.529Z,14892
2018-03-17T12:01:15.239Z,13312
2018-03-17T12:02:15.466Z,12728
2018-03-17T12:03:15.436Z,12800
2018-03-17T12:04:15.402Z,11312
2018-03-17T12:05:15.111Z,11968
2018-03-17T12:06:15.324Z,11000
2018-03-17T12:07:15.290Z,13084
2018-03-17T12:08:15.009Z,12800
2018-03-17T12:09:15.228Z,11984
2018-03-17T12:10:15.279Z,12024
2018-03-17T12:11:14.675Z,11012
2018-03-17T12:12:15.126Z,11552
2018-03-17T12:13:15.104Z,11860
2018-03-17T12:14:15.062Z,11468
2018-03-17T12:15:15.029Z,11676
2018-03-17T12:16:15.001Z,12440
2018-03-17T12:17:14.973Z,12180
2018-03-17T12:18:14.930Z,11788
2018-03-17T12:19:14.649Z,12652
2018-03-17T12:20:14.608Z,13612
2018-03-17T12:21:14.587Z,13608
2018-03-17T12:22:14.827Z,12752
2018-03-17T12:23:14.515Z,12136
2018-03-17T12:24:14.480Z,11848
2018-03-17T12:25:14.709Z,9968
2018-03-17T12:26:14.677Z,10480
2018-03-17T12:27:14.165Z,11608
2018-03-17T12:28:14.597Z,12424
2018-03-17T12:29:14.568Z,12456
2018-03-17T12:30:14.529Z,11028
2018-03-17T12:31:14.498Z,11040
2018-03-17T12:32:14.465Z,11368
2018-03-17T12:33:14.436Z,12444
2018-03-17T12:34:14.403Z,11828
2018-03-17T12:35:14.361Z,11752
2018-03-17T12:36:14.330Z,11488
2018-03-17T12:37:13.865Z,10628
2018-03-17T12:38:14.265Z,11864
2018-03-17T12:39:14.225Z,12016
2018-03-17T12:40:13.953Z,13064
2018-03-17T12:41:14.238Z,13896
2018-03-17T12:42:13.921Z,12836
2018-03-17T12:43:13.849Z,13104
2018-03-17T12:44:14.066Z,13940
2018-03-17T12:45:14.038Z,13104
2018-03-17T12:46:13.993Z,14784
2018-03-17T12:47:13.982Z,13484
2018-03-17T12:48:13.934Z,14152
2018-03-17T12:49:13.650Z,12008
2018-03-17T12:50:13.866Z,11036
2018-03-17T12:51:13.841Z,11792
2018-03-17T12:52:13.799Z,11660
2018-03-17T12:53:13.770Z,11748
2018-03-17T12:54:14.670Z,12364
2018-03-17T12:55:13.446Z,11672
2018-03-17T12:56:13.669Z,10500
2018-03-17T12:57:13.633Z,9820
2018-03-17T12:58:13.600Z,9896
2018-03-17T12:59:13.319Z,8824
2018-03-17T13:00:13.540Z,9804
2018-03-17T13:01:13.496Z,9148
2018-03-17T13:02:13.224Z,8464
2018-03-17T13:03:13.185Z,8548
2018-03-17T13:04:13.406Z,8632
2018-03-17T13:05:13.360Z,8092
2018-03-17T13:06:13.795Z,7844
2018-03-17T13:07:13.301Z,8200
2018-03-17T13:08:13.262Z,8400
2018-03-17T13:09:13.229Z,8184
2018-03-17T13:10:12.958Z,8420
2018-03-17T13:11:12.915Z,8692
2018-03-17T13:12:12.892Z,8136
2018-03-17T13:13:12.848Z,8192
2018-03-17T13:14:13.067Z,8628
2018-03-17T13:15:13.028Z,8476
2018-03-17T13:16:12.749Z,8504
2018-03-17T13:17:12.219Z,8664
2018-03-17T13:18:12.686Z,8400
2018-03-17T13:19:12.401Z,7792
2018-03-17T13:20:12.363Z,8308
2018-03-17T13:21:12.586Z,8196
2018-03-17T13:22:12.818Z,7972
2018-03-17T13:23:12.524Z,9120
2018-03-17T13:24:12.479Z,9644
2018-03-17T13:25:12.699Z,9780
2018-03-17T13:26:12.416Z,9972
2018-03-17T13:27:12.630Z,9364
2018-03-17T13:28:12.593Z,9040
2018-03-17T13:29:12.065Z,9008
2018-03-17T13:30:12.548Z,8548
2018-03-17T13:31:12.246Z,8388
2018-03-17T13:32:12.472Z,8352
2018-03-17T13:33:12.663Z,8488
2018-03-17T13:34:12.394Z,8152
2018-03-17T13:35:12.365Z,7700
2018-03-17T13:36:12.327Z,7412
2018-03-17T13:37:12.293Z,7584
2018-03-17T13:38:12.256Z,7600
2018-03-17T13:39:12.223Z,7412
2018-03-17T13:40:11.950Z,6960
2018-03-17T13:41:12.160Z,7772
2018-03-17T13:42:12.140Z,7748
2018-03-17T13:43:12.088Z,8056
2018-03-17T13:44:11.864Z,7808
2018-03-17T13:45:11.774Z,7592
2018-03-17T13:46:11.985Z,7432